createdAt,value
2023-05-02T00:00:50.860Z,61.80
2023-05-02T00:03:17.715Z,61.70
2023-05-02T00:05:44.560Z,63.00
2023-05-02T00:08:11.973Z,62.70
2023-05-02T00:10:38.650Z,62.50
2023-05-02T00:13:05.605Z,62.50
2023-05-02T00:15:32.468Z,62.60
2023-05-02T00:17:59.214Z,62.80
2023-05-02T00:20:26.400Z,63.00
2023-05-02T00:22:52.979Z,63.30
2023-05-02T00:25:19.592Z,62.60
2023-05-02T00:27:46.955Z,61.90
2023-05-02T00:30:14.115Z,62.20
2023-05-02T00:32:40.905Z,62.20
2023-05-02T00:35:08.256Z,63.00
2023-05-02T00:37:34.938Z,62.10
2023-05-02T00:40:02.439Z,62.70
2023-05-02T00:42:31.577Z,63.50
2023-05-02T00:44:58.440Z,62.90
2023-05-02T00:47:25.163Z,62.90
2023-05-02T00:49:51.847Z,62.80
2023-05-02T00:52:18.583Z,63.10
2023-05-02T00:54:45.461Z,64.40
2023-05-02T00:57:12.070Z,62.80
2023-05-02T00:59:39.017Z,62.50
2023-05-02T01:02:22.381Z,62.50
2023-05-02T01:04:58.344Z,62.50
2023-05-02T01:07:33.658Z,63.00
2023-05-02T01:10:12.834Z,62.80
2023-05-02T01:12:43.518Z,63.00
2023-05-02T01:15:12.265Z,62.70
2023-05-02T01:17:40.263Z,63.40
2023-05-02T01:20:08.541Z,64.90
2023-05-02T01:22:37.972Z,62.70
2023-05-02T01:25:17.172Z,61.90
2023-05-02T01:27:50.785Z,62.20
2023-05-02T01:30:18.936Z,61.80
2023-05-02T01:32:46.394Z,61.60
2023-05-02T01:35:16.578Z,61.50
2023-05-02T01:37:44.947Z,61.20
2023-05-02T01:40:13.629Z,61.30
2023-05-02T01:42:41.207Z,61.90
2023-05-02T01:45:08.651Z,61.30
2023-05-02T01:47:36.030Z,61.50
2023-05-02T01:50:06.895Z,61.40
2023-05-02T01:52:33.670Z,61.50
2023-05-02T01:55:01.203Z,61.50
2023-05-02T01:57:28.343Z,62.00
2023-05-02T01:59:56.834Z,61.80
2023-05-02T02:02:27.599Z,62.30
2023-05-02T02:04:55.313Z,61.90
2023-05-02T02:07:21.963Z,62.00
2023-05-02T02:09:48.708Z,61.50
2023-05-02T02:12:27.366Z,61.80
2023-05-02T02:15:01.818Z,61.70
2023-05-02T02:17:38.515Z,61.70
2023-05-02T02:20:06.738Z,61.70
2023-05-02T02:22:37.436Z,61.70
2023-05-02T02:25:10.510Z,61.70
2023-05-02T02:27:41.094Z,61.50
2023-05-02T02:30:11.032Z,61.40
2023-05-02T02:32:38.187Z,61.30
2023-05-02T02:35:05.432Z,61.60
2023-05-02T02:37:37.652Z,61.60
2023-05-02T02:40:08.154Z,61.50
2023-05-02T02:42:44.833Z,61.10
2023-05-02T02:45:23.330Z,61.50
2023-05-02T02:48:08.785Z,61.50
2023-05-02T02:50:35.443Z,61.20
2023-05-02T02:53:18.716Z,61.40
2023-05-02T02:55:55.404Z,62.10
2023-05-02T02:58:31.854Z,61.20
2023-05-02T03:01:02.861Z,61.30
2023-05-02T03:03:30.204Z,61.30
2023-05-02T03:05:57.989Z,61.40
2023-05-02T03:08:24.940Z,61.30
2023-05-02T03:10:51.630Z,62.00
2023-05-02T03:13:18.209Z,61.40
2023-05-02T03:15:55.826Z,60.90
2023-05-02T03:18:22.652Z,60.90
2023-05-02T03:20:50.610Z,61.10
2023-05-02T03:23:17.202Z,60.90
2023-05-02T03:25:45.368Z,61.30
2023-05-02T03:28:12.862Z,61.60
2023-05-02T03:30:42.246Z,61.40
2023-05-02T03:33:09.088Z,61.30
2023-05-02T03:35:36.177Z,61.30
2023-05-02T03:38:02.802Z,61.50
2023-05-02T03:40:29.852Z,60.90
2023-05-02T03:42:56.420Z,61.30
2023-05-02T03:45:23.724Z,61.80
2023-05-02T03:47:51.068Z,60.90
2023-05-02T03:50:18.263Z,60.80
2023-05-02T03:52:44.849Z,61.00
2023-05-02T03:55:11.714Z,61.80
2023-05-02T03:57:38.480Z,61.20
2023-05-02T04:00:07.256Z,61.10
2023-05-02T04:02:34.616Z,61.00
2023-05-02T04:05:01.344Z,61.50
2023-05-02T04:07:28.562Z,61.60
2023-05-02T04:09:55.254Z,61.20
2023-05-02T04:12:22.312Z,61.00
2023-05-02T04:14:49.486Z,61.00
2023-05-02T04:17:16.807Z,60.30
2023-05-02T04:19:43.716Z,60.00
2023-05-02T04:22:11.557Z,59.70
2023-05-02T04:24:38.318Z,59.60
2023-05-02T04:27:05.368Z,60.00
2023-05-02T04:29:32.080Z,59.30
2023-05-02T04:31:58.903Z,59.10
2023-05-02T04:34:28.159Z,58.90
2023-05-02T04:36:55.568Z,59.10
2023-05-02T04:39:23.087Z,58.70
2023-05-02T04:41:50.849Z,59.40
2023-05-02T04:44:17.648Z,59.40
2023-05-02T04:46:44.827Z,59.00
2023-05-02T04:49:12.128Z,59.20
2023-05-02T04:51:38.677Z,60.50
2023-05-02T04:54:05.242Z,59.60
2023-05-02T04:56:31.897Z,59.80
2023-05-02T04:58:58.498Z,59.50
2023-05-02T05:01:27.874Z,59.80
2023-05-02T05:03:55.041Z,59.80
2023-05-02T05:06:22.486Z,59.40
2023-05-02T05:08:49.412Z,59.40
2023-05-02T05:11:16.537Z,59.20
2023-05-02T05:13:43.195Z,59.20
2023-05-02T05:16:10.058Z,60.00
2023-05-02T05:18:40.679Z,60.10
2023-05-02T05:21:07.989Z,59.50
2023-05-02T05:23:34.820Z,59.70
2023-05-02T05:26:11.038Z,59.70
2023-05-02T05:28:37.745Z,59.20
2023-05-02T05:31:08.446Z,60.30
2023-05-02T05:33:35.570Z,59.40
2023-05-02T05:36:05.845Z,59.70
2023-05-02T05:38:32.466Z,59.80
2023-05-02T05:40:59.071Z,59.80
2023-05-02T05:43:26.416Z,59.70
2023-05-02T05:45:53.416Z,60.10
2023-05-02T05:48:20.154Z,59.60
2023-05-02T05:50:46.947Z,59.80
2023-05-02T05:53:13.957Z,59.50
2023-05-02T05:55:42.299Z,59.70
2023-05-02T05:58:09.142Z,60.20
2023-05-02T06:00:36.350Z,59.80
2023-05-02T06:03:05.087Z,60.00
2023-05-02T06:05:33.416Z,59.70
2023-05-02T06:08:00.140Z,59.70
2023-05-02T06:10:26.750Z,59.60
2023-05-02T06:12:53.373Z,59.80
2023-05-02T06:15:19.952Z,60.00
2023-05-02T06:17:46.566Z,59.70
2023-05-02T06:20:13.278Z,60.20
2023-05-02T06:22:40.100Z,59.90
2023-05-02T06:25:07.288Z,59.80
2023-05-02T06:27:35.794Z,59.80
2023-05-02T06:30:02.745Z,59.80
2023-05-02T06:32:32.699Z,60.10
2023-05-02T06:34:59.475Z,59.80
2023-05-02T06:37:26.135Z,60.00
2023-05-02T06:39:52.703Z,59.80
2023-05-02T06:42:19.343Z,60.40
2023-05-02T06:44:45.912Z,60.60
2023-05-02T06:47:12.609Z,60.30
2023-05-02T06:49:39.269Z,60.00
2023-05-02T06:52:05.976Z,59.80
2023-05-02T06:54:32.628Z,59.70
2023-05-02T06:56:59.636Z,60.60
2023-05-02T06:59:26.356Z,59.90
2023-05-02T07:01:52.966Z,60.50
2023-05-02T07:04:19.663Z,60.20
2023-05-02T07:06:46.996Z,59.80
2023-05-02T07:09:13.692Z,60.60
2023-05-02T07:11:40.496Z,60.50
2023-05-02T07:14:07.302Z,60.30
2023-05-02T07:16:33.933Z,59.90
2023-05-02T07:19:01.576Z,59.50
2023-05-02T07:21:28.316Z,59.70
2023-05-02T07:23:57.501Z,59.40
2023-05-02T07:26:25.247Z,59.50
2023-05-02T07:28:51.852Z,59.50
2023-05-02T07:31:19.142Z,59.50
2023-05-02T07:33:45.819Z,59.40
2023-05-02T07:36:12.693Z,59.10
2023-05-02T07:38:39.298Z,59.30
2023-05-02T07:41:06.116Z,59.40
2023-05-02T07:43:32.862Z,59.50
2023-05-02T07:46:03.516Z,59.30
2023-05-02T07:48:30.332Z,60.50
2023-05-02T07:51:05.367Z,60.00
2023-05-02T07:53:31.947Z,59.50
2023-05-02T07:55:58.493Z,59.50
2023-05-02T07:58:25.397Z,59.80
2023-05-02T08:00:51.981Z,59.70
2023-05-02T08:03:18.740Z,59.80
2023-05-02T08:05:45.632Z,59.70
2023-05-02T08:08:12.233Z,59.90
2023-05-02T08:10:38.819Z,60.00
2023-05-02T08:13:05.558Z,60.10
2023-05-02T08:15:32.278Z,60.10
2023-05-02T08:17:59.813Z,60.10
2023-05-02T08:20:26.551Z,60.30
2023-05-02T08:22:53.264Z,60.30
2023-05-02T08:25:19.918Z,60.40
2023-05-02T08:27:46.487Z,60.10
2023-05-02T08:30:13.353Z,60.60
2023-05-02T08:32:40.120Z,60.00
2023-05-02T08:35:07.014Z,60.00
2023-05-02T08:37:33.656Z,60.40
2023-05-02T08:40:00.749Z,59.90
2023-05-02T08:42:28.661Z,60.10
2023-05-02T08:44:55.361Z,60.20
2023-05-02T08:47:22.436Z,59.90
2023-05-02T08:49:49.984Z,60.10
2023-05-02T08:52:17.678Z,60.30
2023-05-02T08:54:44.814Z,60.40
2023-05-02T08:57:11.508Z,60.40
2023-05-02T08:59:38.104Z,60.80
2023-05-02T09:02:15.877Z,61.60
2023-05-02T09:04:43.376Z,60.40
2023-05-02T09:07:10.892Z,60.70
2023-05-02T09:09:37.722Z,61.20
2023-05-02T09:12:04.408Z,60.60
2023-05-02T09:14:31.110Z,59.90
2023-05-02T09:17:01.392Z,59.70
2023-05-02T09:19:28.177Z,59.60
2023-05-02T09:22:00.238Z,59.60
2023-05-02T09:24:26.937Z,58.90
2023-05-02T09:26:57.925Z,59.30
2023-05-02T09:29:24.824Z,59.30
2023-05-02T09:31:56.121Z,59.40
2023-05-02T09:34:23.398Z,59.40
2023-05-02T09:37:08.430Z,59.90
2023-05-02T09:39:35.097Z,59.20
2023-05-02T09:42:03.444Z,59.50
2023-05-02T09:44:36.764Z,59.50
2023-05-02T09:47:03.566Z,59.60
2023-05-02T09:49:46.453Z,59.80
2023-05-02T09:52:14.272Z,59.90
2023-05-02T09:54:41.053Z,59.80
2023-05-02T09:57:08.020Z,59.70
2023-05-02T09:59:34.664Z,59.60
2023-05-02T10:02:02.580Z,59.50
2023-05-02T10:04:30.611Z,60.30
2023-05-02T10:06:57.695Z,59.70
2023-05-02T10:09:25.534Z,60.00
2023-05-02T10:11:53.965Z,59.90
2023-05-02T10:14:22.523Z,60.00
2023-05-02T10:16:55.234Z,60.10
2023-05-02T10:19:24.258Z,60.00
2023-05-02T10:21:51.332Z,60.10
2023-05-02T10:24:17.920Z,59.80
2023-05-02T10:26:44.682Z,60.00
2023-05-02T10:29:11.382Z,59.80
2023-05-02T10:31:39.675Z,59.70
2023-05-02T10:34:10.566Z,59.70
2023-05-02T10:36:37.288Z,59.90
2023-05-02T10:39:03.986Z,60.20
2023-05-02T10:41:31.997Z,60.20
2023-05-02T10:44:00.004Z,60.30
2023-05-02T10:46:31.032Z,60.50
2023-05-02T10:49:04.812Z,60.10
2023-05-02T10:51:32.035Z,60.10
2023-05-02T10:54:17.221Z,60.60
2023-05-02T10:57:03.515Z,60.30
2023-05-02T10:59:31.783Z,60.00
2023-05-02T11:01:58.449Z,60.40
2023-05-02T11:04:25.431Z,60.10
2023-05-02T11:07:02.079Z,60.10
2023-05-02T11:09:28.622Z,60.10
2023-05-02T11:11:56.439Z,60.10
2023-05-02T11:14:25.887Z,60.80
2023-05-02T11:16:58.963Z,60.20
2023-05-02T11:19:26.134Z,60.30
2023-05-02T11:21:54.620Z,60.20
2023-05-02T11:24:40.083Z,60.40
2023-05-02T11:27:25.447Z,60.30
2023-05-02T11:29:52.592Z,60.50
2023-05-02T11:32:19.335Z,60.50
2023-05-02T11:34:46.766Z,61.10
2023-05-02T11:37:14.429Z,61.30
2023-05-02T11:39:41.274Z,61.60
2023-05-02T11:42:07.877Z,61.50
2023-05-02T11:44:35.756Z,61.70
2023-05-02T11:47:02.644Z,61.40
2023-05-02T11:49:29.258Z,61.10
2023-05-02T11:51:55.852Z,60.90
2023-05-02T11:54:22.872Z,60.90
2023-05-02T11:56:49.472Z,61.00
2023-05-02T11:59:16.568Z,61.40
2023-05-02T12:01:49.984Z,60.70
2023-05-02T12:04:19.318Z,61.50
2023-05-02T12:06:56.676Z,62.00
2023-05-02T12:09:23.668Z,61.50
2023-05-02T12:11:53.729Z,61.40
2023-05-02T12:14:46.487Z,61.30
2023-05-02T12:17:13.233Z,61.20
2023-05-02T12:19:39.924Z,61.20
2023-05-02T12:22:07.853Z,61.10
2023-05-02T12:24:36.338Z,61.00
2023-05-02T12:27:15.635Z,61.10
2023-05-02T12:29:43.067Z,61.10
2023-05-02T12:32:10.285Z,61.00
2023-05-02T12:34:37.556Z,60.70
2023-05-02T12:37:04.727Z,60.80
2023-05-02T12:39:41.788Z,60.50
2023-05-02T12:42:09.197Z,60.50
2023-05-02T12:44:37.040Z,60.80
2023-05-02T12:47:03.747Z,60.70
2023-05-02T12:49:30.654Z,60.80
2023-05-02T12:51:57.388Z,61.80
2023-05-02T12:54:24.758Z,63.30
2023-05-02T12:56:52.192Z,62.50
2023-05-02T12:59:28.541Z,62.10
2023-05-02T13:01:55.189Z,61.90
2023-05-02T13:04:21.861Z,61.40
2023-05-02T13:06:48.636Z,61.10
2023-05-02T13:09:15.208Z,61.20
2023-05-02T13:11:42.534Z,60.90
2023-05-02T13:14:11.414Z,60.90
2023-05-02T13:16:38.211Z,61.00
2023-05-02T13:19:05.248Z,60.90
2023-05-02T13:21:32.437Z,60.90
2023-05-02T13:23:59.130Z,60.70
2023-05-02T13:26:25.734Z,60.70
2023-05-02T13:28:52.273Z,60.80
2023-05-02T13:31:18.881Z,60.70
2023-05-02T13:33:45.598Z,60.50
2023-05-02T13:36:12.245Z,60.50
2023-05-02T13:38:39.343Z,60.60
2023-05-02T13:41:05.922Z,60.70
2023-05-02T13:43:32.668Z,60.70
2023-05-02T13:45:59.248Z,60.40
2023-05-02T13:48:25.875Z,60.40
2023-05-02T13:50:52.493Z,60.70
2023-05-02T13:53:19.127Z,60.40
2023-05-02T13:55:45.828Z,60.50
2023-05-02T13:58:12.426Z,60.30
2023-05-02T14:00:39.032Z,60.50
2023-05-02T14:03:05.671Z,60.40
2023-05-02T14:05:32.338Z,60.50
2023-05-02T14:07:59.037Z,60.30
2023-05-02T14:10:25.948Z,60.30
2023-05-02T14:12:53.053Z,60.00
2023-05-02T14:15:20.834Z,60.40
2023-05-02T14:17:47.448Z,59.80
2023-05-02T14:20:14.128Z,60.00
2023-05-02T14:22:40.890Z,60.30
2023-05-02T14:25:08.051Z,60.30
2023-05-02T14:27:34.714Z,59.80
2023-05-02T14:30:01.564Z,59.30
2023-05-02T14:32:28.313Z,59.20
2023-05-02T14:34:54.978Z,58.90
2023-05-02T14:37:21.706Z,59.00
2023-05-02T14:39:58.032Z,58.40
2023-05-02T14:42:24.980Z,58.90
2023-05-02T14:44:52.242Z,59.30
2023-05-02T14:47:18.835Z,58.90
2023-05-02T14:49:45.722Z,59.20
2023-05-02T14:52:12.290Z,59.10
2023-05-02T14:54:38.865Z,59.30
2023-05-02T14:57:05.450Z,59.40
2023-05-02T14:59:32.094Z,59.40
2023-05-02T15:01:58.828Z,59.60
2023-05-02T15:04:27.367Z,59.20
2023-05-02T15:06:55.509Z,59.00
2023-05-02T15:09:23.272Z,59.00
2023-05-02T15:11:49.851Z,59.30
2023-05-02T15:14:16.437Z,59.50
2023-05-02T15:16:43.043Z,59.30
2023-05-02T15:19:09.642Z,59.50
2023-05-02T15:21:36.392Z,59.50
2023-05-02T15:24:03.808Z,58.90
2023-05-02T15:26:30.449Z,59.00
2023-05-02T15:28:57.152Z,59.50
2023-05-02T15:31:24.405Z,59.40
2023-05-02T15:33:51.234Z,59.40
2023-05-02T15:36:18.483Z,59.40
2023-05-02T15:38:45.102Z,59.10
2023-05-02T15:41:11.729Z,59.80
2023-05-02T15:43:38.452Z,58.70
2023-05-02T15:46:05.120Z,58.50
2023-05-02T15:48:35.089Z,58.70
2023-05-02T15:51:02.602Z,58.40
2023-05-02T15:53:29.303Z,58.90
2023-05-02T15:55:55.969Z,58.80
2023-05-02T15:58:22.610Z,59.40
2023-05-02T16:00:49.227Z,59.00
2023-05-02T16:03:16.012Z,58.80
2023-05-02T16:05:42.754Z,58.70
2023-05-02T16:08:09.438Z,59.00
2023-05-02T16:10:36.586Z,58.80
2023-05-02T16:13:03.569Z,58.70
2023-05-02T16:15:30.498Z,58.70
2023-05-02T16:17:57.551Z,58.90
2023-05-02T16:20:24.180Z,58.70
2023-05-02T16:22:51.315Z,58.60
2023-05-02T16:25:18.668Z,58.50
2023-05-02T16:27:45.264Z,58.90
2023-05-02T16:30:12.016Z,59.40
2023-05-02T16:32:38.687Z,58.60
2023-05-02T16:35:07.320Z,58.90
2023-05-02T16:37:34.932Z,58.40
2023-05-02T16:40:02.552Z,59.10
2023-05-02T16:42:29.525Z,59.10
2023-05-02T16:44:56.427Z,57.90
2023-05-02T16:47:24.164Z,57.60
2023-05-02T16:49:54.437Z,57.60
2023-05-02T16:52:21.171Z,57.60
2023-05-02T16:54:47.810Z,57.10
2023-05-02T16:57:19.606Z,57.20
2023-05-02T16:59:47.408Z,57.10
2023-05-02T17:02:14.392Z,56.90
2023-05-02T17:04:41.650Z,57.20
2023-05-02T17:07:08.449Z,57.20
2023-05-02T17:09:36.983Z,56.50
2023-05-02T17:12:04.242Z,56.90
2023-05-02T17:14:32.336Z,56.50
2023-05-02T17:16:59.329Z,57.30
2023-05-02T17:19:26.833Z,56.70
2023-05-02T17:21:54.219Z,56.80
2023-05-02T17:24:21.251Z,57.40
2023-05-02T17:26:47.858Z,57.80
2023-05-02T17:29:14.422Z,57.40
2023-05-02T17:31:41.181Z,56.90
2023-05-02T17:34:07.796Z,56.80
2023-05-02T17:36:34.598Z,56.90
2023-05-02T17:39:01.209Z,56.70
2023-05-02T17:41:27.787Z,57.40
2023-05-02T17:43:54.332Z,56.70
2023-05-02T17:46:21.072Z,56.70
2023-05-02T17:48:47.876Z,57.30
2023-05-02T17:51:14.467Z,57.10
2023-05-02T17:53:42.526Z,56.90
2023-05-02T17:56:09.316Z,56.80
2023-05-02T17:58:37.302Z,56.80
2023-05-02T18:01:08.031Z,57.60
2023-05-02T18:03:34.843Z,57.90
2023-05-02T18:06:01.529Z,57.30
2023-05-02T18:08:28.117Z,57.30
2023-05-02T18:10:54.688Z,57.00
2023-05-02T18:13:21.226Z,56.20
2023-05-02T18:15:54.829Z,55.80
2023-05-02T18:18:22.298Z,55.70
2023-05-02T18:20:48.894Z,55.50
2023-05-02T18:23:15.463Z,55.20
2023-05-02T18:25:42.024Z,55.20
2023-05-02T18:28:08.692Z,54.70
2023-05-02T18:30:38.580Z,54.60
2023-05-02T18:33:06.574Z,54.70
2023-05-02T18:35:33.364Z,54.80
2023-05-02T18:37:59.934Z,55.00
2023-05-02T18:40:26.505Z,54.80
2023-05-02T18:42:53.167Z,54.90
2023-05-02T18:45:19.819Z,54.80
2023-05-02T18:47:46.474Z,54.70
2023-05-02T18:50:13.071Z,54.60
2023-05-02T18:52:39.676Z,54.50
2023-05-02T18:55:06.513Z,54.50
2023-05-02T18:57:36.125Z,54.40
2023-05-02T19:00:06.181Z,54.40
2023-05-02T19:02:33.570Z,54.20
2023-05-02T19:05:00.743Z,54.50
2023-05-02T19:07:27.884Z,54.50
2023-05-02T19:09:54.476Z,54.40
2023-05-02T19:12:21.064Z,54.60
2023-05-02T19:14:47.919Z,54.80
2023-05-02T19:17:14.527Z,54.90
2023-05-02T19:19:41.736Z,55.40
2023-05-02T19:22:08.366Z,55.30
2023-05-02T19:24:37.692Z,55.70
2023-05-02T19:27:06.379Z,55.40
2023-05-02T19:29:33.015Z,55.40
2023-05-02T19:32:00.067Z,55.40
2023-05-02T19:34:28.111Z,55.50
2023-05-02T19:36:54.798Z,55.70
2023-05-02T19:39:21.387Z,55.90
2023-05-02T19:41:50.737Z,55.80
2023-05-02T19:44:17.989Z,56.00
2023-05-02T19:46:44.619Z,55.90
2023-05-02T19:49:11.291Z,56.00
2023-05-02T19:51:38.028Z,56.90
2023-05-02T19:54:04.622Z,56.20
2023-05-02T19:56:31.224Z,56.00
2023-05-02T19:58:58.742Z,56.10
2023-05-02T20:01:26.296Z,56.00
2023-05-02T20:03:53.206Z,56.60
2023-05-02T20:06:19.921Z,56.50
2023-05-02T20:08:46.536Z,56.50
2023-05-02T20:11:13.183Z,56.90
2023-05-02T20:13:39.741Z,56.70
2023-05-02T20:16:07.355Z,56.70
2023-05-02T20:18:34.037Z,56.60
2023-05-02T20:21:00.604Z,56.40
2023-05-02T20:23:27.174Z,56.30
2023-05-02T20:25:53.737Z,56.20
2023-05-02T20:28:20.325Z,56.10
2023-05-02T20:30:47.006Z,55.90
2023-05-02T20:33:16.753Z,56.10
2023-05-02T20:35:43.808Z,56.00
2023-05-02T20:38:10.397Z,56.00
2023-05-02T20:40:40.605Z,56.90
2023-05-02T20:43:07.782Z,56.40
2023-05-02T20:45:34.611Z,56.40
2023-05-02T20:48:01.218Z,56.40
2023-05-02T20:50:28.301Z,56.40
2023-05-02T20:52:55.274Z,56.40
2023-05-02T20:55:22.944Z,56.30
2023-05-02T20:57:53.104Z,56.40
2023-05-02T21:00:22.413Z,56.30
2023-05-02T21:02:49.295Z,56.40
2023-05-02T21:05:15.892Z,57.20
2023-05-02T21:07:42.514Z,56.70
2023-05-02T21:10:09.348Z,56.60
2023-05-02T21:12:35.916Z,56.60
2023-05-02T21:15:02.489Z,56.40
2023-05-02T21:17:29.089Z,56.40
2023-05-02T21:19:58.695Z,56.40
2023-05-02T21:22:25.295Z,56.80
2023-05-02T21:24:51.886Z,56.70
2023-05-02T21:27:18.524Z,56.80
2023-05-02T21:29:45.613Z,57.20
2023-05-02T21:32:12.261Z,56.90
2023-05-02T21:34:38.956Z,56.50
2023-05-02T21:37:06.572Z,56.40
2023-05-02T21:39:33.206Z,56.40
2023-05-02T21:42:01.349Z,56.40
2023-05-02T21:44:27.944Z,56.40
2023-05-02T21:46:54.576Z,56.50
2023-05-02T21:49:21.219Z,56.50
2023-05-02T21:51:47.800Z,56.50
2023-05-02T21:54:14.342Z,56.80
2023-05-02T21:56:40.908Z,57.20
2023-05-02T21:59:07.481Z,56.90
2023-05-02T22:01:34.035Z,56.40
2023-05-02T22:04:00.665Z,56.30
2023-05-02T22:06:28.429Z,56.20
2023-05-02T22:08:55.041Z,56.30
2023-05-02T22:11:24.172Z,56.90
2023-05-02T22:13:50.890Z,57.00
2023-05-02T22:16:17.511Z,56.50
2023-05-02T22:18:44.737Z,56.10
2023-05-02T22:21:12.012Z,55.90
2023-05-02T22:23:38.931Z,55.70
2023-05-02T22:26:05.600Z,55.60
2023-05-02T22:28:32.193Z,55.70
2023-05-02T22:30:58.844Z,55.70
2023-05-02T22:33:25.416Z,55.70
2023-05-02T22:35:52.024Z,55.70
2023-05-02T22:38:19.896Z,56.00
2023-05-02T22:40:46.607Z,55.90
2023-05-02T22:43:13.311Z,56.00
2023-05-02T22:45:40.680Z,56.60
2023-05-02T22:48:07.992Z,55.90
2023-05-02T22:50:34.617Z,55.80
2023-05-02T22:53:03.761Z,55.80
2023-05-02T22:55:30.608Z,55.90
2023-05-02T22:57:57.207Z,55.90
2023-05-02T23:00:24.707Z,56.10
2023-05-02T23:02:51.462Z,56.20
2023-05-02T23:05:18.144Z,56.00
2023-05-02T23:07:44.783Z,56.10
2023-05-02T23:10:11.331Z,56.40
2023-05-02T23:12:38.362Z,56.00
2023-05-02T23:15:05.425Z,55.70
2023-05-02T23:17:37.085Z,55.80
2023-05-02T23:20:05.231Z,55.90
2023-05-02T23:22:35.284Z,56.00
2023-05-02T23:25:01.910Z,55.50
2023-05-02T23:27:28.652Z,55.70
2023-05-02T23:29:55.544Z,55.80
2023-05-02T23:32:23.601Z,55.90
2023-05-02T23:34:50.553Z,55.90
2023-05-02T23:37:17.097Z,55.90
2023-05-02T23:39:43.687Z,56.50
2023-05-02T23:42:10.273Z,55.70
2023-05-02T23:44:36.830Z,55.80
2023-05-02T23:47:03.537Z,55.80
2023-05-02T23:49:30.263Z,55.50
2023-05-02T23:51:56.905Z,55.70
2023-05-02T23:54:23.502Z,55.60
2023-05-02T23:56:50.322Z,55.60
2023-05-02T23:59:16.953Z,55.70
